sensor_id;sensor_type;location;lat;lon;timestamp;temperature;humidity
70986;DHT22;58645;43.068;25.610;2023-11-21T00:01:19;4.50;99.90
70986;DHT22;58645;43.068;25.610;2023-11-21T00:03:44;4.50;99.90
70986;DHT22;58645;43.068;25.610;2023-11-21T00:06:10;4.50;99.90
70986;DHT22;58645;43.068;25.610;2023-11-21T00:08:36;4.50;99.90
70986;DHT22;58645;43.068;25.610;2023-11-21T00:11:02;4.50;99.90
70986;DHT22;58645;43.068;25.610;2023-11-21T00:13:33;4.50;99.90
70986;DHT22;58645;43.068;25.610;2023-11-21T00:16:00;4.50;99.90
70986;DHT22;58645;43.068;25.610;2023-11-21T00:18:26;4.40;99.90
70986;DHT22;58645;43.068;25.610;2023-11-21T00:20:51;4.50;99.90
70986;DHT22;58645;43.068;25.610;2023-11-21T00:23:17;4.40;99.90
70986;DHT22;58645;43.068;25.610;2023-11-21T00:25:43;4.50;99.90
70986;DHT22;58645;43.068;25.610;2023-11-21T00:28:09;4.40;99.90
70986;DHT22;58645;43.068;25.610;2023-11-21T00:30:35;4.40;99.90
70986;DHT22;58645;43.068;25.610;2023-11-21T00:33:01;4.40;99.90
70986;DHT22;58645;43.068;25.610;2023-11-21T00:35:26;4.40;99.90
70986;DHT22;58645;43.068;25.610;2023-11-21T00:37:52;4.40;99.90
70986;DHT22;58645;43.068;25.610;2023-11-21T00:40:18;4.40;99.90
70986;DHT22;58645;43.068;25.610;2023-11-21T00:42:47;4.40;99.90
70986;DHT22;58645;43.068;25.610;2023-11-21T00:45:13;4.30;99.90
70986;DHT22;58645;43.068;25.610;2023-11-21T00:47:38;4.30;99.90
70986;DHT22;58645;43.068;25.610;2023-11-21T00:50:05;4.30;99.90
70986;DHT22;58645;43.068;25.610;2023-11-21T00:52:32;4.30;99.90
70986;DHT22;58645;43.068;25.610;2023-11-21T00:54:58;4.20;99.90
70986;DHT22;58645;43.068;25.610;2023-11-21T00:57:26;4.20;99.90
70986;DHT22;58645;43.068;25.610;2023-11-21T00:59:52;4.20;99.90
70986;DHT22;58645;43.068;25.610;2023-11-21T01:02:18;4.20;99.90
70986;DHT22;58645;43.068;25.610;2023-11-21T01:04:43;4.10;99.90
70986;DHT22;58645;43.068;25.610;2023-11-21T01:07:09;4.00;99.90
70986;DHT22;58645;43.068;25.610;2023-11-21T01:09:35;4.00;99.90
70986;DHT22;58645;43.068;25.610;2023-11-21T01:12:00;3.90;99.90
70986;DHT22;58645;43.068;25.610;2023-11-21T01:14:27;3.90;99.90
70986;DHT22;58645;43.068;25.610;2023-11-21T01:16:53;3.90;99.90
70986;DHT22;58645;43.068;25.610;2023-11-21T01:19:19;3.90;99.90
70986;DHT22;58645;43.068;25.610;2023-11-21T01:21:44;3.80;99.90
70986;DHT22;58645;43.068;25.610;2023-11-21T01:24:10;3.80;99.90
70986;DHT22;58645;43.068;25.610;2023-11-21T01:26:36;3.80;99.90
70986;DHT22;58645;43.068;25.610;2023-11-21T01:29:02;3.70;99.90
70986;DHT22;58645;43.068;25.610;2023-11-21T01:31:27;3.70;99.90
70986;DHT22;58645;43.068;25.610;2023-11-21T01:33:55;3.70;99.90
70986;DHT22;58645;43.068;25.610;2023-11-21T01:36:21;3.70;99.90
70986;DHT22;58645;43.068;25.610;2023-11-21T01:38:47;3.70;99.90
70986;DHT22;58645;43.068;25.610;2023-11-21T01:41:16;3.80;99.90
70986;DHT22;58645;43.068;25.610;2023-11-21T01:43:41;3.70;99.90
70986;DHT22;58645;43.068;25.610;2023-11-21T01:46:08;3.70;99.90
70986;DHT22;58645;43.068;25.610;2023-11-21T01:48:34;3.70;99.90
70986;DHT22;58645;43.068;25.610;2023-11-21T01:51:01;3.70;99.90
70986;DHT22;58645;43.068;25.610;2023-11-21T01:53:27;3.70;99.90
70986;DHT22;58645;43.068;25.610;2023-11-21T01:55:55;3.70;99.90
70986;DHT22;58645;43.068;25.610;2023-11-21T01:58:20;3.60;99.90
70986;DHT22;58645;43.068;25.610;2023-11-21T02:00:47;3.60;99.90
70986;DHT22;58645;43.068;25.610;2023-11-21T02:03:16;3.60;99.90
70986;DHT22;58645;43.068;25.610;2023-11-21T02:05:42;3.60;99.90
70986;DHT22;58645;43.068;25.610;2023-11-21T02:08:08;3.50;99.90
70986;DHT22;58645;43.068;25.610;2023-11-21T02:10:35;3.50;99.90
70986;DHT22;58645;43.068;25.610;2023-11-21T02:13:02;3.50;99.90
70986;DHT22;58645;43.068;25.610;2023-11-21T02:15:29;3.40;99.90
70986;DHT22;58645;43.068;25.610;2023-11-21T02:17:54;3.40;99.90
70986;DHT22;58645;43.068;25.610;2023-11-21T02:20:21;3.40;99.90
70986;DHT22;58645;43.068;25.610;2023-11-21T02:22:54;3.40;99.90
70986;DHT22;58645;43.068;25.610;2023-11-21T02:25:33;3.40;99.90
70986;DHT22;58645;43.068;25.610;2023-11-21T02:28:03;3.40;99.90
70986;DHT22;58645;43.068;25.610;2023-11-21T02:30:29;3.50;99.90
70986;DHT22;58645;43.068;25.610;2023-11-21T02:32:59;3.50;99.90
70986;DHT22;58645;43.068;25.610;2023-11-21T02:35:25;3.60;99.90
70986;DHT22;58645;43.068;25.610;2023-11-21T02:37:54;3.60;99.90
70986;DHT22;58645;43.068;25.610;2023-11-21T02:40:20;3.60;99.90
70986;DHT22;58645;43.068;25.610;2023-11-21T02:42:47;3.70;99.90
70986;DHT22;58645;43.068;25.610;2023-11-21T02:45:14;3.60;99.90
70986;DHT22;58645;43.068;25.610;2023-11-21T02:47:45;3.60;99.90
70986;DHT22;58645;43.068;25.610;2023-11-21T02:50:11;3.60;99.90
70986;DHT22;58645;43.068;25.610;2023-11-21T02:52:37;3.60;99.90
70986;DHT22;58645;43.068;25.610;2023-11-21T02:55:03;3.60;99.90
70986;DHT22;58645;43.068;25.610;2023-11-21T02:57:29;3.60;99.90
70986;DHT22;58645;43.068;25.610;2023-11-21T02:59:55;3.50;99.90
70986;DHT22;58645;43.068;25.610;2023-11-21T03:02:21;3.40;99.90
70986;DHT22;58645;43.068;25.610;2023-11-21T03:04:47;3.40;99.90
70986;DHT22;58645;43.068;25.610;2023-11-21T03:07:15;3.40;99.90
70986;DHT22;58645;43.068;25.610;2023-11-21T03:09:40;3.30;99.90
70986;DHT22;58645;43.068;25.610;2023-11-21T03:12:06;3.30;99.90
70986;DHT22;58645;43.068;25.610;2023-11-21T03:14:32;3.20;99.90
70986;DHT22;58645;43.068;25.610;2023-11-21T03:16:58;3.20;99.90
70986;DHT22;58645;43.068;25.610;2023-11-21T03:19:23;3.20;99.90
70986;DHT22;58645;43.068;25.610;2023-11-21T03:21:49;3.20;99.90
70986;DHT22;58645;43.068;25.610;2023-11-21T03:24:15;3.10;99.90
70986;DHT22;58645;43.068;25.610;2023-11-21T03:26:45;3.10;99.90
70986;DHT22;58645;43.068;25.610;2023-11-21T03:29:12;3.10;99.90
70986;DHT22;58645;43.068;25.610;2023-11-21T03:31:38;3.10;99.90
70986;DHT22;58645;43.068;25.610;2023-11-21T03:34:03;3.10;99.90
70986;DHT22;58645;43.068;25.610;2023-11-21T03:36:29;3.10;99.90
70986;DHT22;58645;43.068;25.610;2023-11-21T03:38:55;3.10;99.90
70986;DHT22;58645;43.068;25.610;2023-11-21T03:41:21;3.10;99.90
70986;DHT22;58645;43.068;25.610;2023-11-21T03:43:47;3.00;99.90
70986;DHT22;58645;43.068;25.610;2023-11-21T03:46:12;3.00;99.90
70986;DHT22;58645;43.068;25.610;2023-11-21T03:48:38;3.00;99.90
70986;DHT22;58645;43.068;25.610;2023-11-21T03:51:04;3.00;99.90
70986;DHT22;58645;43.068;25.610;2023-11-21T03:53:30;2.90;99.90
70986;DHT22;58645;43.068;25.610;2023-11-21T03:55:56;2.90;99.90
70986;DHT22;58645;43.068;25.610;2023-11-21T03:58:21;2.90;99.90
70986;DHT22;58645;43.068;25.610;2023-11-21T04:00:47;2.90;99.90
70986;DHT22;58645;43.068;25.610;2023-11-21T04:03:16;2.90;99.90
70986;DHT22;58645;43.068;25.610;2023-11-21T04:05:42;2.90;99.90
70986;DHT22;58645;43.068;25.610;2023-11-21T04:08:07;2.90;99.90
70986;DHT22;58645;43.068;25.610;2023-11-21T04:10:33;2.90;99.90
70986;DHT22;58645;43.068;25.610;2023-11-21T04:12:59;2.90;99.90
70986;DHT22;58645;43.068;25.610;2023-11-21T04:15:25;2.80;99.90
70986;DHT22;58645;43.068;25.610;2023-11-21T04:17:51;2.80;99.90
70986;DHT22;58645;43.068;25.610;2023-11-21T04:20:17;2.80;99.90
70986;DHT22;58645;43.068;25.610;2023-11-21T04:22:44;2.80;99.90
70986;DHT22;58645;43.068;25.610;2023-11-21T04:25:15;2.80;99.90
70986;DHT22;58645;43.068;25.610;2023-11-21T04:27:42;2.80;99.90
70986;DHT22;58645;43.068;25.610;2023-11-21T04:30:10;2.80;99.90
70986;DHT22;58645;43.068;25.610;2023-11-21T04:32:36;2.80;99.90
70986;DHT22;58645;43.068;25.610;2023-11-21T04:35:02;2.80;99.90
70986;DHT22;58645;43.068;25.610;2023-11-21T04:37:29;2.70;99.90
70986;DHT22;58645;43.068;25.610;2023-11-21T04:39:55;2.70;99.90
70986;DHT22;58645;43.068;25.610;2023-11-21T04:42:21;2.70;99.90
70986;DHT22;58645;43.068;25.610;2023-11-21T04:44:48;2.70;99.90
70986;DHT22;58645;43.068;25.610;2023-11-21T04:47:14;2.70;99.90
70986;DHT22;58645;43.068;25.610;2023-11-21T04:49:42;2.70;99.90
70986;DHT22;58645;43.068;25.610;2023-11-21T04:52:07;2.60;99.90
70986;DHT22;58645;43.068;25.610;2023-11-21T04:54:35;2.60;99.90
70986;DHT22;58645;43.068;25.610;2023-11-21T04:57:01;2.60;99.90
70986;DHT22;58645;43.068;25.610;2023-11-21T04:59:28;2.50;99.90
70986;DHT22;58645;43.068;25.610;2023-11-21T05:01:54;2.50;99.90
70986;DHT22;58645;43.068;25.610;2023-11-21T05:04:20;2.50;99.90
70986;DHT22;58645;43.068;25.610;2023-11-21T05:06:47;2.50;99.90
70986;DHT22;58645;43.068;25.610;2023-11-21T05:09:13;2.60;99.90
70986;DHT22;58645;43.068;25.610;2023-11-21T05:11:39;2.60;99.90
70986;DHT22;58645;43.068;25.610;2023-11-21T05:14:06;2.60;99.90
70986;DHT22;58645;43.068;25.610;2023-11-21T05:16:32;2.60;99.90
70986;DHT22;58645;43.068;25.610;2023-11-21T05:18:59;2.60;99.90
70986;DHT22;58645;43.068;25.610;2023-11-21T05:21:29;2.70;99.90
70986;DHT22;58645;43.068;25.610;2023-11-21T05:23:57;2.70;99.90
70986;DHT22;58645;43.068;25.610;2023-11-21T05:26:22;2.70;99.90
70986;DHT22;58645;43.068;25.610;2023-11-21T05:28:48;2.70;99.90
70986;DHT22;58645;43.068;25.610;2023-11-21T05:31:14;2.70;99.90
70986;DHT22;58645;43.068;25.610;2023-11-21T05:33:42;2.80;99.90
70986;DHT22;58645;43.068;25.610;2023-11-21T05:36:08;2.80;99.90
70986;DHT22;58645;43.068;25.610;2023-11-21T05:38:35;2.90;99.90
70986;DHT22;58645;43.068;25.610;2023-11-21T05:41:02;3.00;99.90
70986;DHT22;58645;43.068;25.610;2023-11-21T05:43:38;3.10;99.90
70986;DHT22;58645;43.068;25.610;2023-11-21T05:46:04;3.10;99.90
70986;DHT22;58645;43.068;25.610;2023-11-21T05:48:30;3.20;99.90
70986;DHT22;58645;43.068;25.610;2023-11-21T05:50:55;3.20;99.90
70986;DHT22;58645;43.068;25.610;2023-11-21T05:53:21;3.30;99.90
70986;DHT22;58645;43.068;25.610;2023-11-21T05:56:10;3.30;99.90
70986;DHT22;58645;43.068;25.610;2023-11-21T05:58:43;3.40;99.90
70986;DHT22;58645;43.068;25.610;2023-11-21T06:01:09;3.40;99.90
70986;DHT22;58645;43.068;25.610;2023-11-21T06:03:38;3.40;99.90
70986;DHT22;58645;43.068;25.610;2023-11-21T06:06:04;3.40;99.90
70986;DHT22;58645;43.068;25.610;2023-11-21T06:08:30;3.50;99.90
70986;DHT22;58645;43.068;25.610;2023-11-21T06:10:56;3.40;99.90
70986;DHT22;58645;43.068;25.610;2023-11-21T06:13:22;3.40;99.90
70986;DHT22;58645;43.068;25.610;2023-11-21T06:15:50;3.50;99.90
70986;DHT22;58645;43.068;25.610;2023-11-21T06:18:16;3.50;99.90
70986;DHT22;58645;43.068;25.610;2023-11-21T06:20:45;3.60;99.90
70986;DHT22;58645;43.068;25.610;2023-11-21T06:23:19;3.60;99.90
70986;DHT22;58645;43.068;25.610;2023-11-21T06:25:46;3.70;99.90
70986;DHT22;58645;43.068;25.610;2023-11-21T06:28:12;3.70;99.90
70986;DHT22;58645;43.068;25.610;2023-11-21T06:30:38;3.70;99.90
70986;DHT22;58645;43.068;25.610;2023-11-21T06:33:03;3.80;99.90
70986;DHT22;58645;43.068;25.610;2023-11-21T06:35:29;3.90;99.90
70986;DHT22;58645;43.068;25.610;2023-11-21T06:37:58;4.00;99.90
70986;DHT22;58645;43.068;25.610;2023-11-21T06:40:24;4.10;99.90
70986;DHT22;58645;43.068;25.610;2023-11-21T06:42:50;4.20;99.90
70986;DHT22;58645;43.068;25.610;2023-11-21T06:45:17;4.30;99.90
70986;DHT22;58645;43.068;25.610;2023-11-21T06:47:47;4.40;99.90
70986;DHT22;58645;43.068;25.610;2023-11-21T06:50:13;4.60;99.90
70986;DHT22;58645;43.068;25.610;2023-11-21T06:52:39;4.60;99.90
70986;DHT22;58645;43.068;25.610;2023-11-21T06:55:05;4.60;99.90
70986;DHT22;58645;43.068;25.610;2023-11-21T06:57:33;4.60;99.90
70986;DHT22;58645;43.068;25.610;2023-11-21T06:59:59;4.60;99.90
70986;DHT22;58645;43.068;25.610;2023-11-21T07:02:25;4.80;99.90
70986;DHT22;58645;43.068;25.610;2023-11-21T07:04:51;4.90;99.90
70986;DHT22;58645;43.068;25.610;2023-11-21T07:07:19;5.00;99.90
70986;DHT22;58645;43.068;25.610;2023-11-21T07:09:45;5.20;99.90
70986;DHT22;58645;43.068;25.610;2023-11-21T07:12:11;5.20;99.90
70986;DHT22;58645;43.068;25.610;2023-11-21T07:14:37;5.30;99.90
70986;DHT22;58645;43.068;25.610;2023-11-21T07:17:04;5.60;99.90
70986;DHT22;58645;43.068;25.610;2023-11-21T07:19:30;5.70;99.90
70986;DHT22;58645;43.068;25.610;2023-11-21T07:21:59;5.90;99.90
70986;DHT22;58645;43.068;25.610;2023-11-21T07:24:25;6.10;99.90
70986;DHT22;58645;43.068;25.610;2023-11-21T07:26:52;6.90;99.90
70986;DHT22;58645;43.068;25.610;2023-11-21T07:29:31;8.30;99.90
70986;DHT22;58645;43.068;25.610;2023-11-21T07:31:57;8.90;99.90
70986;DHT22;58645;43.068;25.610;2023-11-21T07:34:23;9.60;99.90
70986;DHT22;58645;43.068;25.610;2023-11-21T07:36:48;10.40;99.90
70986;DHT22;58645;43.068;25.610;2023-11-21T07:39:17;11.40;99.90
70986;DHT22;58645;43.068;25.610;2023-11-21T07:41:43;12.30;94.40
70986;DHT22;58645;43.068;25.610;2023-11-21T07:44:15;12.90;89.20
70986;DHT22;58645;43.068;25.610;2023-11-21T07:46:41;13.20;87.00
70986;DHT22;58645;43.068;25.610;2023-11-21T07:49:07;13.40;84.50
70986;DHT22;58645;43.068;25.610;2023-11-21T07:51:33;13.20;85.00
70986;DHT22;58645;43.068;25.610;2023-11-21T07:53:59;13.60;83.20
70986;DHT22;58645;43.068;25.610;2023-11-21T07:56:25;13.80;80.50
70986;DHT22;58645;43.068;25.610;2023-11-21T07:58:50;14.50;78.30
70986;DHT22;58645;43.068;25.610;2023-11-21T08:01:16;15.30;73.20
70986;DHT22;58645;43.068;25.610;2023-11-21T08:03:42;15.60;71.20
70986;DHT22;58645;43.068;25.610;2023-11-21T08:06:09;16.00;69.10
70986;DHT22;58645;43.068;25.610;2023-11-21T08:08:35;15.80;70.10
70986;DHT22;58645;43.068;25.610;2023-11-21T08:11:01;15.30;71.60
70986;DHT22;58645;43.068;25.610;2023-11-21T08:13:29;14.80;72.80
70986;DHT22;58645;43.068;25.610;2023-11-21T08:15:58;14.50;74.30
70986;DHT22;58645;43.068;25.610;2023-11-21T08:18:29;14.40;74.90
70986;DHT22;58645;43.068;25.610;2023-11-21T08:20:58;14.30;75.30
70986;DHT22;58645;43.068;25.610;2023-11-21T08:23:32;14.30;73.90
70986;DHT22;58645;43.068;25.610;2023-11-21T08:25:59;14.70;74.20
70986;DHT22;58645;43.068;25.610;2023-11-21T08:28:25;15.10;73.20
70986;DHT22;58645;43.068;25.610;2023-11-21T08:30:53;15.50;71.10
70986;DHT22;58645;43.068;25.610;2023-11-21T08:33:22;15.70;71.30
70986;DHT22;58645;43.068;25.610;2023-11-21T08:35:49;15.90;71.60
70986;DHT22;58645;43.068;25.610;2023-11-21T08:38:14;16.40;70.00
70986;DHT22;58645;43.068;25.610;2023-11-21T08:40:40;16.70;69.30
70986;DHT22;58645;43.068;25.610;2023-11-21T08:43:06;17.20;67.60
70986;DHT22;58645;43.068;25.610;2023-11-21T08:45:42;17.30;68.30
70986;DHT22;58645;43.068;25.610;2023-11-21T08:48:08;17.60;66.50
70986;DHT22;58645;43.068;25.610;2023-11-21T08:50:34;18.40;64.80
70986;DHT22;58645;43.068;25.610;2023-11-21T08:52:59;18.70;64.50
70986;DHT22;58645;43.068;25.610;2023-11-21T08:55:26;19.50;61.80
70986;DHT22;58645;43.068;25.610;2023-11-21T08:57:55;20.10;58.80
70986;DHT22;58645;43.068;25.610;2023-11-21T09:00:31;20.70;56.40
70986;DHT22;58645;43.068;25.610;2023-11-21T09:02:56;21.40;54.10
70986;DHT22;58645;43.068;25.610;2023-11-21T09:05:23;21.70;53.60
70986;DHT22;58645;43.068;25.610;2023-11-21T09:07:48;22.00;52.00
70986;DHT22;58645;43.068;25.610;2023-11-21T09:10:14;22.20;51.80
70986;DHT22;58645;43.068;25.610;2023-11-21T09:12:40;22.50;50.00
70986;DHT22;58645;43.068;25.610;2023-11-21T09:15:07;22.80;49.80
70986;DHT22;58645;43.068;25.610;2023-11-21T09:17:35;23.10;48.90
70986;DHT22;58645;43.068;25.610;2023-11-21T09:20:02;22.40;49.70
70986;DHT22;58645;43.068;25.610;2023-11-21T09:22:31;22.30;49.40
70986;DHT22;58645;43.068;25.610;2023-11-21T09:24:57;21.60;51.00
70986;DHT22;58645;43.068;25.610;2023-11-21T09:27:23;21.50;52.70
70986;DHT22;58645;43.068;25.610;2023-11-21T09:29:49;21.80;51.10
70986;DHT22;58645;43.068;25.610;2023-11-21T09:32:15;22.10;50.30
70986;DHT22;58645;43.068;25.610;2023-11-21T09:34:42;22.60;49.40
70986;DHT22;58645;43.068;25.610;2023-11-21T09:37:07;23.20;48.20
70986;DHT22;58645;43.068;25.610;2023-11-21T09:39:34;23.70;45.90
70986;DHT22;58645;43.068;25.610;2023-11-21T09:42:10;24.20;45.40
70986;DHT22;58645;43.068;25.610;2023-11-21T09:47:10;25.00;41.30
70986;DHT22;58645;43.068;25.610;2023-11-21T09:49:37;25.60;38.00
70986;DHT22;58645;43.068;25.610;2023-11-21T09:52:04;26.00;38.00
70986;DHT22;58645;43.068;25.610;2023-11-21T09:54:37;26.30;37.10
70986;DHT22;58645;43.068;25.610;2023-11-21T09:57:03;26.60;37.00
70986;DHT22;58645;43.068;25.610;2023-11-21T09:59:30;27.20;36.90
70986;DHT22;58645;43.068;25.610;2023-11-21T10:01:59;27.60;35.60
70986;DHT22;58645;43.068;25.610;2023-11-21T10:04:25;27.90;35.70
70986;DHT22;58645;43.068;25.610;2023-11-21T10:06:53;28.10;33.50
70986;DHT22;58645;43.068;25.610;2023-11-21T10:09:21;27.70;33.30
70986;DHT22;58645;43.068;25.610;2023-11-21T10:11:49;27.30;35.00
70986;DHT22;58645;43.068;25.610;2023-11-21T10:14:19;27.00;36.70
70986;DHT22;58645;43.068;25.610;2023-11-21T10:16:50;27.30;33.90
70986;DHT22;58645;43.068;25.610;2023-11-21T10:19:19;27.30;33.60
70986;DHT22;58645;43.068;25.610;2023-11-21T10:21:47;27.70;33.00
70986;DHT22;58645;43.068;25.610;2023-11-21T10:24:13;27.10;33.90
70986;DHT22;58645;43.068;25.610;2023-11-21T10:26:40;27.20;35.00
70986;DHT22;58645;43.068;25.610;2023-11-21T10:29:07;27.60;33.60
70986;DHT22;58645;43.068;25.610;2023-11-21T10:31:33;28.30;32.60
70986;DHT22;58645;43.068;25.610;2023-11-21T10:34:16;28.70;30.80
70986;DHT22;58645;43.068;25.610;2023-11-21T10:36:42;29.00;31.50
70986;DHT22;58645;43.068;25.610;2023-11-21T10:39:09;28.30;30.90
70986;DHT22;58645;43.068;25.610;2023-11-21T10:41:38;28.40;31.10
70986;DHT22;58645;43.068;25.610;2023-11-21T10:44:04;27.80;31.60
70986;DHT22;58645;43.068;25.610;2023-11-21T10:46:32;27.10;32.30
70986;DHT22;58645;43.068;25.610;2023-11-21T10:48:58;26.80;33.00
70986;DHT22;58645;43.068;25.610;2023-11-21T10:51:26;26.60;34.70
70986;DHT22;58645;43.068;25.610;2023-11-21T10:53:52;26.50;34.40
70986;DHT22;58645;43.068;25.610;2023-11-21T10:56:18;26.10;34.40
70986;DHT22;58645;43.068;25.610;2023-11-21T10:59:12;25.70;34.50
70986;DHT22;58645;43.068;25.610;2023-11-21T11:01:45;25.10;35.70
70986;DHT22;58645;43.068;25.610;2023-11-21T11:04:15;25.20;36.30
70986;DHT22;58645;43.068;25.610;2023-11-21T11:06:55;26.30;34.40
70986;DHT22;58645;43.068;25.610;2023-11-21T11:09:22;27.00;33.50
70986;DHT22;58645;43.068;25.610;2023-11-21T11:11:48;27.60;32.60
70986;DHT22;58645;43.068;25.610;2023-11-21T11:14:15;27.90;31.90
70986;DHT22;58645;43.068;25.610;2023-11-21T11:16:41;28.00;31.20
70986;DHT22;58645;43.068;25.610;2023-11-21T11:19:09;27.90;30.90
70986;DHT22;58645;43.068;25.610;2023-11-21T11:24:59;28.50;31.80
70986;DHT22;58645;43.068;25.610;2023-11-21T11:37:48;25.80;35.10
70986;DHT22;58645;43.068;25.610;2023-11-21T11:40:14;25.30;36.40
70986;DHT22;58645;43.068;25.610;2023-11-21T11:42:56;25.40;36.30
70986;DHT22;58645;43.068;25.610;2023-11-21T11:45:31;24.50;38.30
70986;DHT22;58645;43.068;25.610;2023-11-21T11:47:57;23.60;39.70
70986;DHT22;58645;43.068;25.610;2023-11-21T11:50:23;23.10;41.40
70986;DHT22;58645;43.068;25.610;2023-11-21T11:52:52;22.30;43.50
70986;DHT22;58645;43.068;25.610;2023-11-21T11:55:26;21.90;43.60
70986;DHT22;58645;43.068;25.610;2023-11-21T11:57:56;21.30;44.60
70986;DHT22;58645;43.068;25.610;2023-11-21T12:02:55;20.50;46.60
70986;DHT22;58645;43.068;25.610;2023-11-21T12:05:40;19.90;47.70
70986;DHT22;58645;43.068;25.610;2023-11-21T12:08:10;19.80;48.60
70986;DHT22;58645;43.068;25.610;2023-11-21T12:10:38;19.60;49.00
70986;DHT22;58645;43.068;25.610;2023-11-21T12:13:11;19.30;50.10
70986;DHT22;58645;43.068;25.610;2023-11-21T12:15:39;19.00;50.90
70986;DHT22;58645;43.068;25.610;2023-11-21T12:18:07;18.80;51.70
70986;DHT22;58645;43.068;25.610;2023-11-21T12:20:33;18.80;51.80
70986;DHT22;58645;43.068;25.610;2023-11-21T12:23:05;18.50;52.50
70986;DHT22;58645;43.068;25.610;2023-11-21T12:25:31;18.30;53.10
70986;DHT22;58645;43.068;25.610;2023-11-21T12:27:59;18.20;53.60
70986;DHT22;58645;43.068;25.610;2023-11-21T12:30:27;18.20;53.90
70986;DHT22;58645;43.068;25.610;2023-11-21T12:32:56;18.10;54.00
70986;DHT22;58645;43.068;25.610;2023-11-21T12:35:25;18.00;54.40
70986;DHT22;58645;43.068;25.610;2023-11-21T12:37:53;17.90;54.70
70986;DHT22;58645;43.068;25.610;2023-11-21T12:40:19;17.80;55.10
70986;DHT22;58645;43.068;25.610;2023-11-21T12:42:53;17.70;55.80
70986;DHT22;58645;43.068;25.610;2023-11-21T12:45:23;17.60;55.90
70986;DHT22;58645;43.068;25.610;2023-11-21T12:47:59;17.50;56.50
70986;DHT22;58645;43.068;25.610;2023-11-21T12:50:27;17.30;56.70
70986;DHT22;58645;43.068;25.610;2023-11-21T12:53:07;17.20;56.90
70986;DHT22;58645;43.068;25.610;2023-11-21T12:55:43;17.10;57.70
70986;DHT22;58645;43.068;25.610;2023-11-21T12:58:15;17.00;58.00
70986;DHT22;58645;43.068;25.610;2023-11-21T13:00:48;17.00;58.50
70986;DHT22;58645;43.068;25.610;2023-11-21T13:03:17;16.90;59.10
70986;DHT22;58645;43.068;25.610;2023-11-21T13:05:47;16.70;59.80
70986;DHT22;58645;43.068;25.610;2023-11-21T13:08:17;16.70;60.00
70986;DHT22;58645;43.068;25.610;2023-11-21T13:10:49;16.60;60.20
70986;DHT22;58645;43.068;25.610;2023-11-21T13:13:15;16.50;60.70
70986;DHT22;58645;43.068;25.610;2023-11-21T13:15:51;16.50;61.30
70986;DHT22;58645;43.068;25.610;2023-11-21T13:18:18;16.40;61.30
70986;DHT22;58645;43.068;25.610;2023-11-21T13:20:44;16.40;61.40
70986;DHT22;58645;43.068;25.610;2023-11-21T13:23:12;16.40;61.90
70986;DHT22;58645;43.068;25.610;2023-11-21T13:25:42;16.40;62.30
70986;DHT22;58645;43.068;25.610;2023-11-21T13:28:08;16.30;62.50
70986;DHT22;58645;43.068;25.610;2023-11-21T13:30:35;16.20;63.10
70986;DHT22;58645;43.068;25.610;2023-11-21T13:33:02;16.10;63.70
70986;DHT22;58645;43.068;25.610;2023-11-21T13:35:31;16.00;63.50
70986;DHT22;58645;43.068;25.610;2023-11-21T13:38:10;16.10;63.80
70986;DHT22;58645;43.068;25.610;2023-11-21T13:40:37;16.00;63.80
70986;DHT22;58645;43.068;25.610;2023-11-21T13:43:11;16.00;63.90
70986;DHT22;58645;43.068;25.610;2023-11-21T13:45:39;16.00;63.90
70986;DHT22;58645;43.068;25.610;2023-11-21T13:48:05;15.90;64.10
70986;DHT22;58645;43.068;25.610;2023-11-21T13:50:36;15.90;64.10
70986;DHT22;58645;43.068;25.610;2023-11-21T13:53:02;15.80;64.10
70986;DHT22;58645;43.068;25.610;2023-11-21T13:55:52;15.80;64.50
70986;DHT22;58645;43.068;25.610;2023-11-21T13:58:23;15.80;64.50
70986;DHT22;58645;43.068;25.610;2023-11-21T14:01:07;15.70;64.90
70986;DHT22;58645;43.068;25.610;2023-11-21T14:03:50;15.70;65.00
70986;DHT22;58645;43.068;25.610;2023-11-21T14:06:22;15.60;65.20
70986;DHT22;58645;43.068;25.610;2023-11-21T14:08:53;15.60;65.40
70986;DHT22;58645;43.068;25.610;2023-11-21T14:11:22;15.60;65.40
70986;DHT22;58645;43.068;25.610;2023-11-21T14:13:48;15.60;65.60
70986;DHT22;58645;43.068;25.610;2023-11-21T14:16:15;15.50;65.60
70986;DHT22;58645;43.068;25.610;2023-11-21T14:18:42;15.50;65.80
70986;DHT22;58645;43.068;25.610;2023-11-21T14:21:19;15.50;66.10
70986;DHT22;58645;43.068;25.610;2023-11-21T14:23:45;15.50;66.40
70986;DHT22;58645;43.068;25.610;2023-11-21T14:26:12;15.40;66.60
70986;DHT22;58645;43.068;25.610;2023-11-21T14:28:42;15.40;67.00
70986;DHT22;58645;43.068;25.610;2023-11-21T14:31:08;15.30;67.60
70986;DHT22;58645;43.068;25.610;2023-11-21T14:33:39;15.30;67.70
70986;DHT22;58645;43.068;25.610;2023-11-21T14:36:05;15.30;68.20
70986;DHT22;58645;43.068;25.610;2023-11-21T14:38:33;15.20;68.50
70986;DHT22;58645;43.068;25.610;2023-11-21T14:40:59;15.20;68.90
70986;DHT22;58645;43.068;25.610;2023-11-21T14:43:25;15.20;69.20
70986;DHT22;58645;43.068;25.610;2023-11-21T14:45:55;15.10;69.50
70986;DHT22;58645;43.068;25.610;2023-11-21T14:48:22;15.10;69.90
70986;DHT22;58645;43.068;25.610;2023-11-21T14:51:24;15.10;70.40
70986;DHT22;58645;43.068;25.610;2023-11-21T14:54:16;15.00;70.70
70986;DHT22;58645;43.068;25.610;2023-11-21T14:56:51;15.00;71.20
70986;DHT22;58645;43.068;25.610;2023-11-21T14:59:18;15.00;71.60
70986;DHT22;58645;43.068;25.610;2023-11-21T15:01:44;15.00;71.90
70986;DHT22;58645;43.068;25.610;2023-11-21T15:04:21;14.90;72.30
70986;DHT22;58645;43.068;25.610;2023-11-21T15:07:05;14.90;72.80
70986;DHT22;58645;43.068;25.610;2023-11-21T15:09:31;14.90;73.30
70986;DHT22;58645;43.068;25.610;2023-11-21T15:11:58;14.90;73.90
70986;DHT22;58645;43.068;25.610;2023-11-21T15:14:32;14.80;74.30
70986;DHT22;58645;43.068;25.610;2023-11-21T15:17:00;14.90;74.80
70986;DHT22;58645;43.068;25.610;2023-11-21T15:19:26;14.80;74.80
70986;DHT22;58645;43.068;25.610;2023-11-21T15:21:53;14.80;75.30
70986;DHT22;58645;43.068;25.610;2023-11-21T15:24:20;14.80;75.70
70986;DHT22;58645;43.068;25.610;2023-11-21T15:26:45;14.80;76.00
70986;DHT22;58645;43.068;25.610;2023-11-21T15:29:11;14.70;76.50
70986;DHT22;58645;43.068;25.610;2023-11-21T15:31:38;14.80;76.70
70986;DHT22;58645;43.068;25.610;2023-11-21T15:34:06;14.70;77.10
70986;DHT22;58645;43.068;25.610;2023-11-21T15:36:33;14.70;77.40
70986;DHT22;58645;43.068;25.610;2023-11-21T15:38:59;14.70;77.60
70986;DHT22;58645;43.068;25.610;2023-11-21T15:41:24;14.60;77.70
70986;DHT22;58645;43.068;25.610;2023-11-21T15:43:50;14.70;78.10
70986;DHT22;58645;43.068;25.610;2023-11-21T15:46:16;14.70;78.20